PRIVATE WETTERSTATION BILLIGHEIM-ALLFELD                       ZURCK
Wetterdaten: Dienstag, 22.08.2017
Datum Zeit Temp. A. Temp. A. min Temp. A. max Feuchte A. Luftdruck Regen Wind Richtung Richtung Sonnenschein ET Solar Taupunkt Windchill Windben Empfang
22.08.2017 00:00 11,6 C 11,6 C 11,7 C 87 % 1021,8 hPa 0,0 l/m 0,0 km/h (0 Bft) W-NW 292 0 min 0,000 mm 0 W/m 9,5 C 11,6 C 3,2 km/h (1 Bft) 100 %
22.08.2017 00:10 11,3 C 11,3 C 11,6 C 88 % 1021,8 hPa 0,0 l/m 0,0 km/h (0 Bft) N 0 0 min 0,000 mm 0 W/m 9,4 C 11,3 C 0,0 km/h (0 Bft) 100 %
22.08.2017 00:20 11,1 C 11,1 C 11,3 C 88 % 1021,8 hPa 0,0 l/m 0,0 km/h (0 Bft) N 0 0 min 0,000 mm 0 W/m 9,2 C 11,1 C 0,0 km/h (0 Bft) 100 %
22.08.2017 00:30 10,9 C 10,9 C 11,1 C 88 % 1021,7 hPa 0,0 l/m 0,0 km/h (0 Bft) N 0 0 min 0,000 mm 0 W/m 9,0 C 10,9 C 0,0 km/h (0 Bft) 100 %
22.08.2017 00:40 10,8 C 10,8 C 10,9 C 88 % 1021,7 hPa 0,0 l/m 0,0 km/h (0 Bft) W-NW 292 0 min 0,000 mm 0 W/m 8,9 C 10,8 C 1,6 km/h (1 Bft) 99 %
22.08.2017 00:50 10,7 C 10,7 C 10,8 C 89 % 1021,6 hPa 0,0 l/m 0,0 km/h (0 Bft) N 0 0 min 0,000 mm 0 W/m 9,0 C 10,7 C 0,0 km/h (0 Bft) 100 %
22.08.2017 01:00 10,6 C 10,6 C 10,7 C 89 % 1021,6 hPa 0,0 l/m 0,0 km/h (0 Bft) N 0 0 min 0,000 mm 0 W/m 8,9 C 10,6 C 0,0 km/h (0 Bft) 100 %
22.08.2017 01:10 10,5 C 10,4 C 10,6 C 89 % 1021,6 hPa 0,0 l/m 0,0 km/h (0 Bft) W-NW 292 0 min 0,000 mm 0 W/m 8,8 C 10,5 C 3,2 km/h (1 Bft) 100 %
22.08.2017 01:20 10,3 C 10,3 C 10,4 C 89 % 1021,5 hPa 0,0 l/m 0,0 km/h (0 Bft) N 0 0 min 0,000 mm 0 W/m 8,6 C 10,3 C 0,0 km/h (0 Bft) 100 %
22.08.2017 01:30 10,3 C 10,2 C 10,3 C 89 % 1021,4 hPa 0,0 l/m 0,0 km/h (0 Bft) N 0 0 min 0,000 mm 0 W/m 8,6 C 10,3 C 0,0 km/h (0 Bft) 100 %
22.08.2017 01:40 10,2 C 10,2 C 10,2 C 89 % 1021,3 hPa 0,0 l/m 0,0 km/h (0 Bft) N 0 0 min 0,000 mm 0 W/m 8,5 C 10,2 C 0,0 km/h (0 Bft) 100 %
22.08.2017 01:50 10,1 C 10,1 C 10,2 C 89 % 1021,3 hPa 0,0 l/m 0,0 km/h (0 Bft) W-NW 292 0 min 0,000 mm 0 W/m 8,4 C 10,1 C 3,2 km/h (1 Bft) 100 %
22.08.2017 02:00 10,0 C 10,0 C 10,1 C 89 % 1021,2 hPa 0,0 l/m 0,0 km/h (0 Bft) N 0 0 min 0,000 mm 0 W/m 8,3 C 10,0 C 0,0 km/h (0 Bft) 100 %
22.08.2017 02:10 9,9 C 9,9 C 10,0 C 89 % 1021,3 hPa 0,0 l/m 0,0 km/h (0 Bft) W-NW 292 0 min 0,000 mm 0 W/m 8,2 C 9,9 C 3,2 km/h (1 Bft) 99 %
22.08.2017 02:20 9,8 C 9,8 C 9,9 C 89 % 1021,3 hPa 0,0 l/m 1,6 km/h (1 Bft) W-NW 292 0 min 0,000 mm 0 W/m 8,1 C 9,8 C 4,8 km/h (1 Bft) 100 %
22.08.2017 02:30 9,8 C 9,7 C 9,8 C 89 % 1021,3 hPa 0,0 l/m 0,0 km/h (0 Bft) NW 315 0 min 0,000 mm 0 W/m 8,1 C 9,8 C 3,2 km/h (1 Bft) 100 %
22.08.2017 02:40 9,7 C 9,7 C 9,8 C 89 % 1021,2 hPa 0,0 l/m 0,0 km/h (0 Bft) N 0 0 min 0,000 mm 0 W/m 8,0 C 9,7 C 0,0 km/h (0 Bft) 99 %
22.08.2017 02:50 9,6 C 9,6 C 9,7 C 89 % 1021,3 hPa 0,0 l/m 0,0 km/h (0 Bft) NW 315 0 min 0,000 mm 0 W/m 7,9 C 9,6 C 3,2 km/h (1 Bft) 100 %
22.08.2017 03:00 9,6 C 9,6 C 9,6 C 89 % 1021,3 hPa 0,0 l/m 1,6 km/h (1 Bft) NW 315 0 min 0,000 mm 0 W/m 7,9 C 9,6 C 4,8 km/h (1 Bft) 99 %
22.08.2017 03:10 9,5 C 9,5 C 9,6 C 89 % 1021,3 hPa 0,0 l/m 1,6 km/h (1 Bft) NW 315 0 min 0,000 mm 0 W/m 7,8 C 9,5 C 4,8 km/h (1 Bft) 100 %
22.08.2017 03:20 9,4 C 9,4 C 9,5 C 89 % 1021,3 hPa 0,0 l/m 0,0 km/h (0 Bft) NW 315 0 min 0,000 mm 0 W/m 7,7 C 9,4 C 1,6 km/h (1 Bft) 100 %
22.08.2017 03:30 9,3 C 9,3 C 9,4 C 89 % 1021,3 hPa 0,0 l/m 0,0 km/h (0 Bft) N 0 0 min 0,000 mm 0 W/m 7,6 C 9,3 C 0,0 km/h (0 Bft) 100 %
22.08.2017 03:40 9,2 C 9,2 C 9,3 C 89 % 1021,3 hPa 0,0 l/m 0,0 km/h (0 Bft) N 0 0 min 0,000 mm 0 W/m 7,5 C 9,2 C 0,0 km/h (0 Bft) 100 %
22.08.2017 03:50 9,1 C 9,1 C 9,2 C 89 % 1021,2 hPa 0,0 l/m 0,0 km/h (0 Bft) N 0 0 min 0,000 mm 0 W/m 7,4 C 9,1 C 0,0 km/h (0 Bft) 100 %
22.08.2017 04:00 8,9 C 8,9 C 9,1 C 89 % 1021,2 hPa 0,0 l/m 0,0 km/h (0 Bft) NW 315 0 min 0,000 mm 0 W/m 7,2 C 8,9 C 3,2 km/h (1 Bft) 100 %
22.08.2017 04:10 8,9 C 8,9 C 8,9 C 89 % 1021,2 hPa 0,0 l/m 0,0 km/h (0 Bft) NW 315 0 min 0,000 mm 0 W/m 7,2 C 8,9 C 1,6 km/h (1 Bft) 100 %
22.08.2017 04:20 8,9 C 8,9 C 8,9 C 89 % 1021,1 hPa 0,0 l/m 0,0 km/h (0 Bft) N 0 0 min 0,000 mm 0 W/m 7,2 C 8,9 C 0,0 km/h (0 Bft) 100 %
22.08.2017 04:30 8,9 C 8,9 C 8,9 C 89 % 1021,1 hPa 0,0 l/m 0,0 km/h (0 Bft) N 0 0 min 0,000 mm 0 W/m 7,2 C 8,9 C 0,0 km/h (0 Bft) 99 %
22.08.2017 04:40 8,9 C 8,9 C 8,9 C 89 % 1021,1 hPa 0,0 l/m 0,0 km/h (0 Bft) N 0 0 min 0,000 mm 0 W/m 7,2 C 8,9 C 0,0 km/h (0 Bft) 100 %
22.08.2017 04:50 8,9 C 8,9 C 8,9 C 89 % 1021,0 hPa 0,0 l/m 0,0 km/h (0 Bft) NW 315 0 min 0,000 mm 0 W/m 7,2 C 8,9 C 1,6 km/h (1 Bft) 100 %
22.08.2017 05:00 8,9 C 8,9 C 8,9 C 89 % 1021,0 hPa 0,0 l/m 0,0 km/h (0 Bft) N 0 0 min 0,000 mm 0 W/m 7,2 C 8,9 C 0,0 km/h (0 Bft) 91 %
22.08.2017 05:10 8,8 C 8,8 C 8,9 C 89 % 1021,0 hPa 0,0 l/m 0,0 km/h (0 Bft) N 0 0 min 0,000 mm 0 W/m 7,1 C 8,8 C 0,0 km/h (0 Bft) 100 %
22.08.2017 05:20 8,7 C 8,7 C 8,8 C 89 % 1021,0 hPa 0,0 l/m 0,0 km/h (0 Bft) N 0 0 min 0,000 mm 0 W/m 7,0 C 8,7 C 0,0 km/h (0 Bft) 100 %
22.08.2017 05:30 8,7 C 8,7 C 8,7 C 89 % 1021,0 hPa 0,0 l/m 0,0 km/h (0 Bft) N 0 0 min 0,000 mm 0 W/m 7,0 C 8,7 C 0,0 km/h (0 Bft) 100 %
22.08.2017 05:40 8,6 C 8,6 C 8,7 C 89 % 1021,0 hPa 0,0 l/m 0,0 km/h (0 Bft) N 0 0 min 0,000 mm 0 W/m 6,9 C 8,6 C 0,0 km/h (0 Bft) 100 %
22.08.2017 05:50 8,6 C 8,6 C 8,6 C 89 % 1021,0 hPa 0,0 l/m 0,0 km/h (0 Bft) N 0 0 min 0,000 mm 0 W/m 6,9 C 8,6 C 0,0 km/h (0 Bft) 100 %
22.08.2017 06:00 8,6 C 8,5 C 8,6 C 89 % 1021,1 hPa 0,0 l/m 0,0 km/h (0 Bft) N 0 0 min 0,000 mm 0 W/m 6,9 C 8,6 C 0,0 km/h (0 Bft) 100 %
22.08.2017 06:10 8,6 C 8,6 C 8,6 C 89 % 1021,0 hPa 0,0 l/m 0,0 km/h (0 Bft) N 0 0 min 0,000 mm 0 W/m 6,9 C 8,6 C 0,0 km/h (0 Bft) 100 %
22.08.2017 06:20 8,6 C 8,6 C 8,6 C 89 % 1021,0 hPa 0,0 l/m 0,0 km/h (0 Bft) N 0 0 min 0,000 mm 0 W/m 6,9 C 8,6 C 0,0 km/h (0 Bft) 100 %
22.08.2017 06:30 8,5 C 8,5 C 8,6 C 89 % 1021,0 hPa 0,0 l/m 0,0 km/h (0 Bft) N 0 0 min 0,000 mm 0 W/m 6,8 C 8,5 C 0,0 km/h (0 Bft) 100 %
22.08.2017 06:40 8,4 C 8,4 C 8,5 C 89 % 1021,0 hPa 0,0 l/m 0,0 km/h (0 Bft) N 0 0 min 0,000 mm 0 W/m 6,7 C 8,4 C 0,0 km/h (0 Bft) 100 %
22.08.2017 06:50 8,3 C 8,3 C 8,4 C 89 % 1021,0 hPa 0,0 l/m 0,0 km/h (0 Bft) N 0 0 min 0,000 mm 5 W/m 6,6 C 8,3 C 0,0 km/h (0 Bft) 100 %
22.08.2017 07:00 8,2 C 8,2 C 8,3 C 89 % 1021,0 hPa 0,0 l/m 0,0 km/h (0 Bft) N 0 0 min 0,000 mm 9 W/m 6,5 C 8,2 C 0,0 km/h (0 Bft) 100 %
22.08.2017 07:10 8,2 C 8,2 C 8,3 C 89 % 1020,9 hPa 0,0 l/m 0,0 km/h (0 Bft) N 0 0 min 0,000 mm 12 W/m 6,5 C 8,2 C 0,0 km/h (0 Bft) 100 %
22.08.2017 07:20 8,2 C 8,2 C 8,3 C 89 % 1021,0 hPa 0,0 l/m 0,0 km/h (0 Bft) N 0 0 min 0,000 mm 18 W/m 6,5 C 8,2 C 0,0 km/h (0 Bft) 100 %
22.08.2017 07:30 8,3 C 8,2 C 8,3 C 89 % 1021,0 hPa 0,0 l/m 0,0 km/h (0 Bft) N 0 0 min 0,000 mm 23 W/m 6,6 C 8,3 C 0,0 km/h (0 Bft) 100 %
22.08.2017 07:40 8,3 C 8,2 C 8,3 C 89 % 1021,0 hPa 0,0 l/m 0,0 km/h (0 Bft) N 0 0 min 0,000 mm 26 W/m 6,6 C 8,3 C 0,0 km/h (0 Bft) 100 %
22.08.2017 07:50 8,4 C 8,3 C 8,4 C 89 % 1021,0 hPa 0,0 l/m 1,6 km/h (1 Bft) NW 315 0 min 0,000 mm 32 W/m 6,7 C 8,4 C 4,8 km/h (1 Bft) 100 %
22.08.2017 08:00 8,6 C 8,4 C 8,6 C 89 % 1021,1 hPa 0,0 l/m 0,0 km/h (0 Bft) NW 315 0 min 0,000 mm 37 W/m 6,9 C 8,6 C 4,8 km/h (1 Bft) 100 %
22.08.2017 08:10 8,8 C 8,6 C 8,8 C 89 % 1021,1 hPa 0,0 l/m 0,0 km/h (0 Bft) N 0 0 min 0,000 mm 42 W/m 7,1 C 8,8 C 0,0 km/h (0 Bft) 100 %
22.08.2017 08:20 9,1 C 8,8 C 9,1 C 89 % 1021,0 hPa 0,0 l/m 0,0 km/h (0 Bft) N 0 0 min 0,000 mm 47 W/m 7,4 C 9,1 C 0,0 km/h (0 Bft) 100 %
22.08.2017 08:30 9,4 C 9,1 C 9,4 C 90 % 1021,0 hPa 0,0 l/m 0,0 km/h (0 Bft) N 0 0 min 0,000 mm 58 W/m 7,8 C 9,4 C 0,0 km/h (0 Bft) 100 %
22.08.2017 08:40 9,9 C 9,4 C 9,9 C 90 % 1020,9 hPa 0,0 l/m 0,0 km/h (0 Bft) N 0 10 min 0,000 mm 264 W/m 8,3 C 9,9 C 0,0 km/h (0 Bft) 100 %
22.08.2017 08:50 10,9 C 9,9 C 10,9 C 90 % 1020,8 hPa 0,0 l/m 0,0 km/h (0 Bft) N 0 10 min 0,000 mm 299 W/m 9,3 C 10,9 C 0,0 km/h (0 Bft) 100 %
22.08.2017 09:00 12,1 C 11,0 C 12,1 C 90 % 1020,6 hPa 0,0 l/m 0,0 km/h (0 Bft) N 0 10 min 0,076 mm 322 W/m 10,5 C 12,1 C 0,0 km/h (0 Bft) 100 %
22.08.2017 09:10 13,2 C 12,1 C 13,2 C 89 % 1020,7 hPa 0,0 l/m 0,0 km/h (0 Bft) N 0 10 min 0,000 mm 355 W/m 11,4 C 13,2 C 0,0 km/h (0 Bft) 100 %
22.08.2017 09:20 14,6 C 13,2 C 14,6 C 89 % 1020,6 hPa 0,0 l/m 0,0 km/h (0 Bft) NW 315 10 min 0,000 mm 385 W/m 12,8 C 14,6 C 1,6 km/h (1 Bft) 100 %
22.08.2017 09:30 15,7 C 14,6 C 15,7 C 86 % 1020,6 hPa 0,0 l/m 0,0 km/h (0 Bft) N 0 10 min 0,000 mm 410 W/m 13,4 C 15,7 C 0,0 km/h (0 Bft) 100 %
22.08.2017 09:40 16,3 C 15,7 C 16,3 C 81 % 1020,6 hPa 0,0 l/m 0,0 km/h (0 Bft) N 0 10 min 0,000 mm 434 W/m 13,0 C 16,3 C 0,0 km/h (0 Bft) 100 %
22.08.2017 09:50 16,5 C 16,3 C 16,5 C 80 % 1020,6 hPa 0,0 l/m 0,0 km/h (0 Bft) N 0 10 min 0,000 mm 471 W/m 13,0 C 16,5 C 0,0 km/h (0 Bft) 99 %
22.08.2017 10:00 17,6 C 16,5 C 17,6 C 80 % 1020,6 hPa 0,0 l/m 0,0 km/h (0 Bft) N 0 10 min 0,203 mm 501 W/m 14,1 C 17,6 C 0,0 km/h (0 Bft) 100 %
22.08.2017 10:10 18,1 C 17,6 C 18,1 C 75 % 1020,7 hPa 0,0 l/m 0,0 km/h (0 Bft) N 0 10 min 0,000 mm 526 W/m 13,6 C 18,1 C 0,0 km/h (0 Bft) 100 %
22.08.2017 10:20 18,7 C 18,1 C 18,7 C 72 % 1020,4 hPa 0,0 l/m 0,0 km/h (0 Bft) SO 135 10 min 0,000 mm 548 W/m 13,5 C 18,7 C 8,0 km/h (2 Bft) 100 %
22.08.2017 10:40 20,0 C 18,1 C 20,0 C 61 % 1020,6 hPa 0,0 l/m 0,7 km/h (0 Bft) SO 141 20 min 0,000 mm 598 W/m 12,2 C 20,0 C 4,8 km/h (1 Bft) 100 %
22.08.2017 10:50 20,6 C 20,0 C 20,6 C 60 % 1020,5 hPa 0,0 l/m 0,3 km/h (0 Bft) SO 140 10 min 0,000 mm 622 W/m 12,6 C 20,6 C 3,2 km/h (1 Bft) 100 %
22.08.2017 11:00 20,9 C 20,6 C 20,9 C 59 % 1020,6 hPa 0,0 l/m 2,7 km/h (1 Bft) SO 135 10 min 0,331 mm 656 W/m 12,6 C 20,9 C 8,0 km/h (2 Bft) 100 %
22.08.2017 11:10 21,3 C 20,9 C 21,3 C 60 % 1020,5 hPa 0,0 l/m 0,4 km/h (0 Bft) SO 134 10 min 0,000 mm 661 W/m 13,2 C 21,3 C 6,4 km/h (2 Bft) 100 %
22.08.2017 11:20 21,6 C 21,3 C 21,6 C 58 % 1020,4 hPa 0,0 l/m 0,7 km/h (0 Bft) SO 140 10 min 0,000 mm 693 W/m 13,0 C 21,6 C 6,4 km/h (2 Bft) 100 %
22.08.2017 11:30 21,8 C 21,6 C 21,8 C 55 % 1020,3 hPa 0,0 l/m 0,0 km/h (0 Bft) SO 130 10 min 0,000 mm 671 W/m 12,4 C 21,8 C 1,6 km/h (1 Bft) 100 %
22.08.2017 11:40 21,8 C 21,7 C 21,8 C 57 % 1020,4 hPa 0,0 l/m 3,4 km/h (1 Bft) SO 132 10 min 0,000 mm 717 W/m 12,9 C 21,8 C 11,3 km/h (2 Bft) 100 %
22.08.2017 11:50 21,9 C 21,8 C 21,9 C 55 % 1020,3 hPa 0,0 l/m 0,0 km/h (0 Bft) O 95 10 min 0,000 mm 726 W/m 12,4 C 21,9 C 1,6 km/h (1 Bft) 100 %
22.08.2017 12:00 22,0 C 21,9 C 22,0 C 56 % 1020,2 hPa 0,0 l/m 0,2 km/h (0 Bft) N 360 10 min 0,431 mm 754 W/m 12,8 C 22,0 C 3,2 km/h (1 Bft) 100 %
22.08.2017 12:10 22,1 C 22,0 C 22,1 C 56 % 1020,1 hPa 0,0 l/m 0,7 km/h (0 Bft) O-SO 114 10 min 0,000 mm 680 W/m 12,9 C 22,1 C 8,0 km/h (2 Bft) 100 %
22.08.2017 12:20 22,2 C 22,1 C 22,2 C 55 % 1020,1 hPa 0,0 l/m 1,9 km/h (1 Bft) N 350 10 min 0,000 mm 775 W/m 12,7 C 22,2 C 8,0 km/h (2 Bft) 100 %
22.08.2017 12:30 22,4 C 22,2 C 22,4 C 56 % 1020,0 hPa 0,0 l/m 0,4 km/h (0 Bft) W-SW 246 10 min 0,000 mm 775 W/m 13,2 C 22,4 C 8,0 km/h (2 Bft) 100 %
22.08.2017 12:40 22,5 C 22,4 C 22,5 C 53 % 1019,8 hPa 0,0 l/m 3,9 km/h (1 Bft) S 185 10 min 0,000 mm 775 W/m 12,4 C 22,5 C 11,3 km/h (2 Bft) 100 %
22.08.2017 12:50 22,7 C 22,5 C 22,7 C 53 % 1019,7 hPa 0,0 l/m 1,0 km/h (0 Bft) O-SO 112 10 min 0,000 mm 795 W/m 12,6 C 22,7 C 8,0 km/h (2 Bft) 100 %
22.08.2017 13:00 22,3 C 22,3 C 22,7 C 49 % 1019,6 hPa 0,0 l/m 3,0 km/h (1 Bft) O-SO 113 10 min 0,458 mm 629 W/m 11,1 C 22,3 C 11,3 km/h (2 Bft) 100 %
22.08.2017 13:10 22,3 C 22,2 C 22,3 C 52 % 1019,6 hPa 0,0 l/m 0,9 km/h (0 Bft) SO 138 10 min 0,000 mm 798 W/m 12,0 C 22,3 C 8,0 km/h (2 Bft) 100 %
22.08.2017 13:20 22,5 C 22,3 C 22,6 C 52 % 1019,5 hPa 0,0 l/m 4,1 km/h (1 Bft) S 175 10 min 0,000 mm 779 W/m 12,1 C 22,5 C 11,3 km/h (2 Bft) 99 %
22.08.2017 13:30 22,8 C 22,5 C 22,8 C 52 % 1019,5 hPa 0,0 l/m 2,5 km/h (1 Bft) SO 135 10 min 0,000 mm 810 W/m 12,4 C 22,8 C 9,7 km/h (2 Bft) 98 %
22.08.2017 13:40 22,8 C 22,8 C 22,9 C 50 % 1019,2 hPa 0,0 l/m 4,0 km/h (1 Bft) S-SO 164 10 min 0,000 mm 803 W/m 11,8 C 22,8 C 11,3 km/h (2 Bft) 98 %
22.08.2017 13:50 22,6 C 22,6 C 22,8 C 49 % 1019,1 hPa 0,0 l/m 4,4 km/h (1 Bft) S-SO 153 10 min 0,000 mm 816 W/m 11,3 C 22,6 C 11,3 km/h (2 Bft) 100 %
22.08.2017 14:00 22,7 C 22,6 C 22,7 C 52 % 1019,1 hPa 0,0 l/m 4,7 km/h (1 Bft) W-SW 247 10 min 0,508 mm 728 W/m 12,3 C 22,7 C 16,1 km/h (3 Bft) 100 %
22.08.2017 14:10 22,7 C 22,7 C 22,8 C 49 % 1019,1 hPa 0,0 l/m 0,7 km/h (0 Bft) W-SW 255 10 min 0,000 mm 705 W/m 11,4 C 22,7 C 11,3 km/h (2 Bft) 100 %
22.08.2017 14:20 22,7 C 22,6 C 22,7 C 53 % 1019,0 hPa 0,0 l/m 1,9 km/h (1 Bft) S-SW 212 10 min 0,000 mm 803 W/m 12,6 C 22,7 C 9,7 km/h (2 Bft) 100 %
22.08.2017 14:30 22,7 C 22,7 C 22,7 C 51 % 1018,9 hPa 0,0 l/m 1,3 km/h (1 Bft) SW 229 10 min 0,000 mm 698 W/m 12,0 C 22,7 C 6,4 km/h (2 Bft) 100 %
22.08.2017 14:40 23,1 C 22,7 C 23,1 C 49 % 1018,9 hPa 0,0 l/m 0,0 km/h (0 Bft) W-NW 302 10 min 0,000 mm 812 W/m 11,8 C 23,1 C 1,6 km/h (1 Bft) 100 %
22.08.2017 14:50 23,6 C 23,1 C 23,6 C 49 % 1018,8 hPa 0,0 l/m 2,2 km/h (1 Bft) N-NW 329 10 min 0,000 mm 772 W/m 12,2 C 23,6 C 6,4 km/h (2 Bft) 100 %
22.08.2017 15:00 23,6 C 23,6 C 23,7 C 49 % 1018,7 hPa 0,0 l/m 3,1 km/h (1 Bft) O-SO 123 10 min 0,431 mm 784 W/m 12,2 C 23,6 C 8,0 km/h (2 Bft) 100 %
22.08.2017 15:10 23,7 C 23,6 C 23,7 C 49 % 1018,7 hPa 0,0 l/m 1,1 km/h (1 Bft) SO 125 10 min 0,000 mm 737 W/m 12,3 C 23,7 C 8,0 km/h (2 Bft) 99 %
22.08.2017 15:20 23,5 C 23,5 C 23,7 C 51 % 1018,7 hPa 0,0 l/m 0,7 km/h (0 Bft) N-NW 339 10 min 0,000 mm 714 W/m 12,8 C 23,5 C 6,4 km/h (2 Bft) 100 %
22.08.2017 15:30 23,4 C 23,4 C 23,5 C 51 % 1018,7 hPa 0,0 l/m 0,6 km/h (0 Bft) O 82 10 min 0,000 mm 747 W/m 12,7 C 23,4 C 4,8 km/h (1 Bft) 99 %
22.08.2017 15:40 23,1 C 23,1 C 23,4 C 53 % 1018,5 hPa 0,0 l/m 0,1 km/h (0 Bft) O 86 10 min 0,000 mm 388 W/m 13,0 C 23,1 C 1,6 km/h (1 Bft) 100 %
22.08.2017 15:50 22,7 C 22,7 C 23,1 C 54 % 1018,5 hPa 0,0 l/m 0,0 km/h (0 Bft) O 86 0 min 0,000 mm 135 W/m 12,9 C 22,7 C 0,0 km/h (0 Bft) 100 %
22.08.2017 16:00 22,5 C 22,4 C 22,7 C 54 % 1018,4 hPa 0,0 l/m 0,2 km/h (0 Bft) N 355 10 min 0,305 mm 710 W/m 12,7 C 22,5 C 4,8 km/h (1 Bft) 100 %
22.08.2017 16:10 22,6 C 22,5 C 22,6 C 54 % 1018,3 hPa 0,0 l/m 0,5 km/h (0 Bft) SO 136 10 min 0,000 mm 680 W/m 12,8 C 22,6 C 6,4 km/h (2 Bft) 100 %
22.08.2017 16:20 22,7 C 22,6 C 22,7 C 50 % 1018,3 hPa 0,0 l/m 1,6 km/h (1 Bft) SO 127 10 min 0,000 mm 589 W/m 11,7 C 22,7 C 6,4 km/h (2 Bft) 100 %
22.08.2017 16:30 22,8 C 22,7 C 22,8 C 53 % 1018,2 hPa 0,0 l/m 0,7 km/h (0 Bft) S-SO 167 10 min 0,000 mm 629 W/m 12,7 C 22,8 C 4,8 km/h (1 Bft) 100 %
22.08.2017 16:40 23,2 C 22,8 C 23,2 C 52 % 1018,2 hPa 0,0 l/m 0,4 km/h (0 Bft) O-SO 105 10 min 0,000 mm 160 W/m 12,8 C 23,2 C 6,4 km/h (2 Bft) 100 %
22.08.2017 16:50 23,2 C 23,1 C 23,2 C 50 % 1018,0 hPa 0,0 l/m 0,6 km/h (0 Bft) SO 140 10 min 0,000 mm 163 W/m 12,2 C 23,2 C 6,4 km/h (2 Bft) 100 %
22.08.2017 17:00 23,3 C 23,2 C 23,3 C 52 % 1018,0 hPa 0,0 l/m 0,2 km/h (0 Bft) W 263 0 min 0,229 mm 90 W/m 12,9 C 23,3 C 4,8 km/h (1 Bft) 100 %
22.08.2017 17:10 23,3 C 23,3 C 23,4 C 52 % 1018,0 hPa 0,0 l/m 0,4 km/h (0 Bft) W-NW 297 0 min 0,000 mm 90 W/m 12,9 C 23,3 C 6,4 km/h (2 Bft) 100 %
22.08.2017 17:20 23,3 C 23,3 C 23,4 C 49 % 1018,0 hPa 0,0 l/m 0,2 km/h (0 Bft) W-NW 294 0 min 0,000 mm 86 W/m 12,0 C 23,3 C 4,8 km/h (1 Bft) 100 %
22.08.2017 17:30 23,3 C 23,3 C 23,3 C 52 % 1018,0 hPa 0,0 l/m 0,1 km/h (0 Bft) W-NW 298 0 min 0,000 mm 86 W/m 12,9 C 23,3 C 3,2 km/h (1 Bft) 100 %
22.08.2017 17:40 23,1 C 23,1 C 23,3 C 52 % 1017,9 hPa 0,0 l/m 0,1 km/h (0 Bft) W-NW 300 0 min 0,000 mm 83 W/m 12,7 C 23,1 C 3,2 km/h (1 Bft) 100 %
22.08.2017 17:50 23,2 C 23,1 C 23,2 C 49 % 1017,9 hPa 0,0 l/m 0,3 km/h (0 Bft) W-NW 301 0 min 0,000 mm 69 W/m 11,9 C 23,2 C 4,8 km/h (1 Bft) 100 %
22.08.2017 18:00 23,2 C 23,2 C 23,2 C 50 % 1017,9 hPa 0,0 l/m 0,2 km/h (0 Bft) NW 320 0 min 0,051 mm 72 W/m 12,2 C 23,2 C 3,2 km/h (1 Bft) 100 %
22.08.2017 18:10 23,1 C 23,1 C 23,2 C 50 % 1017,8 hPa 0,0 l/m 0,0 km/h (0 Bft) N-NW 338 0 min 0,000 mm 90 W/m 12,1 C 23,1 C 0,0 km/h (0 Bft) 100 %
22.08.2017 18:20 22,9 C 22,9 C 23,1 C 52 % 1017,7 hPa 0,0 l/m 0,4 km/h (0 Bft) O 92 0 min 0,000 mm 79 W/m 12,5 C 22,9 C 4,8 km/h (1 Bft) 100 %
22.08.2017 18:30 22,7 C 22,7 C 22,9 C 52 % 1017,6 hPa 0,0 l/m 0,6 km/h (0 Bft) O 98 0 min 0,000 mm 77 W/m 12,3 C 22,7 C 4,8 km/h (1 Bft) 100 %
22.08.2017 18:40 22,7 C 22,6 C 22,7 C 53 % 1017,5 hPa 0,0 l/m 0,0 km/h (0 Bft) O 98 0 min 0,000 mm 76 W/m 12,6 C 22,7 C 0,0 km/h (0 Bft) 100 %
22.08.2017 18:50 22,4 C 22,4 C 22,7 C 56 % 1017,5 hPa 0,0 l/m 0,0 km/h (0 Bft) O 98 0 min 0,000 mm 74 W/m 13,2 C 22,4 C 0,0 km/h (0 Bft) 100 %
22.08.2017 19:00 22,0 C 22,0 C 22,4 C 55 % 1017,6 hPa 0,0 l/m 0,0 km/h (0 Bft) O 98 0 min 0,050 mm 95 W/m 12,5 C 22,0 C 0,0 km/h (0 Bft) 100 %
22.08.2017 19:10 21,8 C 21,8 C 22,0 C 53 % 1017,5 hPa 0,0 l/m 0,8 km/h (0 Bft) O-SO 107 0 min 0,000 mm 67 W/m 11,8 C 21,8 C 4,8 km/h (1 Bft) 99 %
22.08.2017 19:20 21,7 C 21,7 C 21,8 C 57 % 1017,5 hPa 0,0 l/m 0,0 km/h (0 Bft) O-SO 107 0 min 0,000 mm 40 W/m 12,8 C 21,7 C 0,0 km/h (0 Bft) 100 %
22.08.2017 19:30 21,6 C 21,5 C 21,7 C 56 % 1017,6 hPa 0,0 l/m 0,0 km/h (0 Bft) O-SO 107 0 min 0,000 mm 32 W/m 12,4 C 21,6 C 0,0 km/h (0 Bft) 100 %
22.08.2017 19:40 21,3 C 21,3 C 21,6 C 57 % 1017,6 hPa 0,0 l/m 0,0 km/h (0 Bft) O-SO 107 0 min 0,000 mm 25 W/m 12,4 C 21,3 C 0,0 km/h (0 Bft) 100 %
22.08.2017 19:50 21,0 C 21,0 C 21,3 C 59 % 1017,5 hPa 0,0 l/m 0,0 km/h (0 Bft) O-SO 107 0 min 0,000 mm 11 W/m 12,7 C 21,0 C 0,0 km/h (0 Bft) 100 %
22.08.2017 20:00 20,5 C 20,5 C 21,0 C 60 % 1017,5 hPa 0,0 l/m 0,0 km/h (0 Bft) O-SO 107 0 min 0,026 mm 9 W/m 12,5 C 20,5 C 0,0 km/h (0 Bft) 100 %
22.08.2017 20:10 20,0 C 20,0 C 20,5 C 60 % 1017,4 hPa 0,0 l/m 0,0 km/h (0 Bft) O-SO 107 0 min 0,000 mm 9 W/m 12,0 C 20,0 C 0,0 km/h (0 Bft) 99 %
22.08.2017 20:20 19,5 C 19,5 C 20,0 C 59 % 1017,4 hPa 0,0 l/m 0,0 km/h (0 Bft) O-SO 107 0 min 0,000 mm 0 W/m 11,3 C 19,5 C 0,0 km/h (0 Bft) 100 %
22.08.2017 20:30 19,2 C 19,2 C 19,5 C 61 % 1017,4 hPa 0,0 l/m 0,0 km/h (0 Bft) O 96 0 min 0,000 mm 0 W/m 11,5 C 19,2 C 1,6 km/h (1 Bft) 100 %
22.08.2017 20:40 18,9 C 18,9 C 19,2 C 61 % 1017,6 hPa 0,0 l/m 0,0 km/h (0 Bft) O 88 0 min 0,000 mm 0 W/m 11,2 C 18,9 C 0,0 km/h (0 Bft) 100 %
22.08.2017 20:50 18,8 C 18,8 C 18,9 C 62 % 1017,7 hPa 0,0 l/m 0,1 km/h (0 Bft) O 91 0 min 0,000 mm 0 W/m 11,4 C 18,8 C 1,6 km/h (1 Bft) 100 %
22.08.2017 21:00 18,6 C 18,6 C 18,8 C 62 % 1017,7 hPa 0,0 l/m 0,2 km/h (0 Bft) O 101 0 min 0,000 mm 0 W/m 11,2 C 18,6 C 4,8 km/h (1 Bft) 100 %
22.08.2017 21:10 18,4 C 18,4 C 18,6 C 61 % 1017,8 hPa 0,0 l/m 0,0 km/h (0 Bft) O 90 0 min 0,000 mm 0 W/m 10,7 C 18,4 C 3,2 km/h (1 Bft) 100 %
22.08.2017 21:20 18,3 C 18,3 C 18,4 C 63 % 1017,8 hPa 0,0 l/m 0,0 km/h (0 Bft) O-SO 112 0 min 0,000 mm 0 W/m 11,1 C 18,3 C 8,0 km/h (2 Bft) 100 %
22.08.2017 21:30 18,2 C 18,2 C 18,3 C 64 % 1017,7 hPa 0,0 l/m 0,0 km/h (0 Bft) SO 135 0 min 0,000 mm 0 W/m 11,3 C 18,2 C 1,6 km/h (1 Bft) 100 %
22.08.2017 21:40 17,9 C 17,9 C 18,2 C 68 % 1017,6 hPa 0,0 l/m 0,0 km/h (0 Bft) SO 135 0 min 0,000 mm 0 W/m 11,9 C 17,9 C 3,2 km/h (1 Bft) 99 %
22.08.2017 21:50 17,4 C 17,4 C 17,9 C 70 % 1017,5 hPa 0,0 l/m 0,0 km/h (0 Bft) O-SO 112 0 min 0,000 mm 0 W/m 11,9 C 17,4 C 1,6 km/h (1 Bft) 100 %
22.08.2017 22:00 17,0 C 17,0 C 17,4 C 70 % 1017,5 hPa 0,0 l/m 0,0 km/h (0 Bft) NO 45 0 min 0,025 mm 0 W/m 11,5 C 17,0 C 6,4 km/h (2 Bft) 100 %
22.08.2017 22:10 16,8 C 16,8 C 17,0 C 72 % 1017,6 hPa 0,0 l/m 0,0 km/h (0 Bft) NO 45 0 min 0,000 mm 0 W/m 11,7 C 16,8 C 3,2 km/h (1 Bft) 100 %
22.08.2017 22:20 16,4 C 16,4 C 16,8 C 73 % 1017,8 hPa 0,0 l/m 0,0 km/h (0 Bft) N 0 0 min 0,000 mm 0 W/m 11,5 C 16,4 C 0,0 km/h (0 Bft) 100 %
22.08.2017 22:30 16,2 C 16,2 C 16,4 C 74 % 1017,7 hPa 0,0 l/m 0,0 km/h (0 Bft) NO 45 0 min 0,000 mm 0 W/m 11,6 C 16,2 C 3,2 km/h (1 Bft) 100 %
22.08.2017 22:40 16,0 C 16,0 C 16,2 C 76 % 1017,7 hPa 0,0 l/m 0,0 km/h (0 Bft) N 0 0 min 0,000 mm 0 W/m 11,8 C 16,0 C 0,0 km/h (0 Bft) 100 %
22.08.2017 22:50 15,7 C 15,7 C 16,0 C 77 % 1017,6 hPa 0,0 l/m 0,0 km/h (0 Bft) N 0 0 min 0,000 mm 0 W/m 11,7 C 15,7 C 0,0 km/h (0 Bft) 100 %
22.08.2017 23:00 15,3 C 15,3 C 15,6 C 78 % 1017,6 hPa 0,0 l/m 0,0 km/h (0 Bft) N-NO 22 0 min 0,025 mm 0 W/m 11,5 C 15,3 C 6,4 km/h (2 Bft) 100 %
22.08.2017 23:10 15,1 C 15,1 C 15,3 C 77 % 1017,5 hPa 0,0 l/m 0,0 km/h (0 Bft) NO 45 0 min 0,000 mm 0 W/m 11,1 C 15,1 C 4,8 km/h (1 Bft) 100 %
22.08.2017 23:20 15,1 C 15,1 C 15,1 C 77 % 1017,5 hPa 0,0 l/m 0,0 km/h (0 Bft) NO 45 0 min 0,000 mm 0 W/m 11,1 C 15,1 C 3,2 km/h (1 Bft) 100 %
22.08.2017 23:30 15,1 C 15,1 C 15,1 C 77 % 1017,5 hPa 0,0 l/m 0,0 km/h (0 Bft) N 0 0 min 0,000 mm 0 W/m 11,1 C 15,1 C 0,0 km/h (0 Bft) 100 %
22.08.2017 23:40 15,1 C 15,1 C 15,1 C 78 % 1017,4 hPa 0,0 l/m 0,0 km/h (0 Bft) NO 45 0 min 0,000 mm 0 W/m 11,3 C 15,1 C 6,4 km/h (2 Bft) 100 %
22.08.2017 23:50 14,9 C 14,9 C 15,1 C 77 % 1017,3 hPa 0,0 l/m 0,0 km/h (0 Bft) O 90 0 min 0,000 mm 0 W/m 10,9 C 14,9 C 4,8 km/h (1 Bft) 100 %
_ Min-Zeit 07:00 07:00 07:00 13:00 23:50 - 00:00 - - - - - 07:00 07:00 00:10 05:00
Minimum _ 8,2 C 8,2 C 8,3 C 49 % 1017,3 hPa - 0,0 km/h (0 Bft) - - - - - 6,5 C 8,2 C 0,0 km/h (0 Bft) 91 %
_ Max-Zeit 15:00 15:00 15:00 08:30 00:00 00:00 14:00 - - 10:40 14:00 13:50 10:00 15:10 14:00 00:20
Maximum _ 23,7 C 23,6 C 23,7 C 90 % 1021,8 hPa 0,0 l/m 4,7 km/h
W-SW (1 Bft)
- - 20 min 0,508 mm 816 W/m 14,1 C 23,7 C 16,1 km/h
S-SW (3 Bft)
100 %
Durchschnitt _ 16,2 C 16,1 C 16,3 C 71 % 1019,6 hPa #0,0 l/m 0,5 km/h (0 Bft) SO - #8:10 h #3,149 mm 395 W/m 10,5 C 16,2 C 3,1 km/h (1 Bft) 100 %
PRIVATE WETTERSTATION BILLIGHEIM-ALLFELD - www.neckar-odenwald-wetter.de - Holger Sonntag